Time;durP1;ratioP1;P1;durP2;ratioP2;P2;SDS_P1;SDS_P2;PMS_P1;PMS_P2;Temp;Humidity;BMP_temperature;BMP_pressure;BME280_temperature;BME280_humidity;BME280_pressure;Samples;Min_cycle;Max_cycle;Signal;HPM_P1;HPM_P2
2023/12/29 00:00:04;;;;;;;8.23;5.90;;;7.90;20.60;;;;;;5008925;28;20487;-68
2023/12/29 00:02:33;;;;;;;9.30;6.20;;;7.90;20.60;;;;;;5008400;28;20476;-69
2023/12/29 00:04:59;;;;;;;8.77;5.50;;;7.90;20.70;;;;;;5009448;28;20503;-69
2023/12/29 00:07:26;;;;;;;10.10;5.60;;;7.90;20.60;;;;;;5009839;28;20498;-69
2023/12/29 00:09:53;;;;;;;7.30;4.77;;;7.90;20.50;;;;;;5008725;28;20467;-69
2023/12/29 00:12:20;;;;;;;8.87;6.10;;;7.90;20.50;;;;;;5009917;28;20456;-69
2023/12/29 00:14:47;;;;;;;10.40;5.70;;;7.90;20.50;;;;;;5009296;28;20472;-69
2023/12/29 00:17:14;;;;;;;8.20;6.67;;;7.90;21.20;;;;;;5009306;28;20818;-69
2023/12/29 00:19:42;;;;;;;10.37;6.03;;;7.90;21.20;;;;;;5008923;28;20563;-69
2023/12/29 00:22:08;;;;;;;9.70;5.90;;;7.90;20.60;;;;;;5013074;28;20448;-69
2023/12/29 00:24:35;;;;;;;8.10;5.50;;;7.90;20.60;;;;;;5012967;28;20489;-69
2023/12/29 00:27:02;;;;;;;9.00;5.80;;;7.90;20.70;;;;;;5012705;28;20456;-69
2023/12/29 00:29:32;;;;;;;8.53;6.27;;;7.80;20.70;;;;;;5012542;28;20456;-69
2023/12/29 00:32:00;;;;;;;9.90;6.23;;;7.80;20.90;;;;;;5011699;28;20901;-69
2023/12/29 00:34:26;;;;;;;10.63;6.33;;;7.80;20.90;;;;;;5012429;28;20486;-69
2023/12/29 00:36:54;;;;;;;7.97;5.63;;;7.80;21.00;;;;;;5011910;28;20461;-69
2023/12/29 00:39:28;;;;;;;9.50;5.80;;;7.70;21.10;;;;;;5012973;28;20487;-69
2023/12/29 00:41:56;;;;;;;8.70;5.90;;;7.70;21.20;;;;;;5012081;28;20471;-69
2023/12/29 00:44:22;;;;;;;9.13;6.00;;;7.70;21.20;;;;;;5012746;28;21013;-69
2023/12/29 00:46:49;;;;;;;14.10;7.00;;;7.70;21.20;;;;;;5012001;28;20459;-69
2023/12/29 00:49:16;;;;;;;10.47;6.67;;;7.70;21.20;;;;;;5012922;28;20520;-69
2023/12/29 00:51:44;;;;;;;10.00;6.67;;;7.60;21.20;;;;;;5012765;28;20475;-69
2023/12/29 00:54:12;;;;;;;10.93;6.97;;;7.60;21.30;;;;;;5012605;28;20801;-69
2023/12/29 00:56:39;;;;;;;10.33;6.37;;;7.50;21.30;;;;;;5012165;28;20458;-69
2023/12/29 00:59:06;;;;;;;10.67;6.37;;;7.50;21.30;;;;;;5012194;28;21228;-69
2023/12/29 01:01:35;;;;;;;12.73;7.83;;;7.50;21.30;;;;;;5011822;28;20558;-69
2023/12/29 01:04:01;;;;;;;10.10;6.40;;;7.40;21.10;;;;;;5011584;28;20483;-69
2023/12/29 01:06:28;;;;;;;11.80;7.67;;;7.40;21.20;;;;;;5012279;28;21107;-69
2023/12/29 01:08:55;;;;;;;13.80;8.10;;;7.40;21.30;;;;;;5012377;28;20451;-69
2023/12/29 01:11:23;;;;;;;11.40;7.57;;;7.40;21.20;;;;;;5012710;28;20455;-68
2023/12/29 01:13:50;;;;;;;10.67;7.40;;;7.30;21.50;;;;;;5011644;28;20949;-69
2023/12/29 01:16:17;;;;;;;11.13;6.80;;;7.30;21.30;;;;;;5012443;28;20813;-69
2023/12/29 01:18:44;;;;;;;10.50;7.50;;;7.30;21.30;;;;;;5012200;28;20969;-69
2023/12/29 01:21:10;;;;;;;11.70;7.20;;;7.30;22.10;;;;;;5012228;28;20956;-69
2023/12/29 01:23:37;;;;;;;11.37;7.83;;;7.20;21.30;;;;;;5011642;28;20877;-69
2023/12/29 01:26:04;;;;;;;12.53;7.90;;;7.20;21.20;;;;;;5012113;28;20780;-69
2023/12/29 01:28:33;;;;;;;9.53;6.90;;;7.20;21.30;;;;;;5011913;28;20459;-68
2023/12/29 01:30:59;;;;;;;11.07;8.23;;;7.20;21.30;;;;;;5010677;28;20486;-68
2023/12/29 01:33:26;;;;;;;10.23;7.23;;;7.20;21.10;;;;;;5010833;28;20463;-68
2023/12/29 01:35:53;;;;;;;12.03;7.80;;;7.10;21.10;;;;;;5011969;28;20570;-68
2023/12/29 01:38:20;;;;;;;10.13;7.00;;;7.20;21.10;;;;;;5011510;28;20459;-68
2023/12/29 01:40:47;;;;;;;10.27;6.77;;;7.20;21.10;;;;;;5012029;28;20455;-68
2023/12/29 01:43:14;;;;;;;12.70;7.10;;;7.30;21.00;;;;;;5011240;28;20456;-68
2023/12/29 01:45:42;;;;;;;9.63;7.17;;;7.30;21.00;;;;;;5011974;28;20480;-68
2023/12/29 01:48:10;;;;;;;10.60;6.80;;;7.30;20.90;;;;;;5011468;28;20467;-68
2023/12/29 01:50:37;;;;;;;13.43;7.50;;;7.30;20.80;;;;;;5010816;28;20452;-68
2023/12/29 01:53:06;;;;;;;9.87;7.17;;;7.40;20.70;;;;;;5011609;28;20554;-68
2023/12/29 01:55:33;;;;;;;10.57;7.20;;;7.40;20.50;;;;;;5011555;28;20476;-68
2023/12/29 01:58:01;;;;;;;11.73;7.37;;;7.40;20.60;;;;;;5011143;28;20448;-70
2023/12/29 02:00:28;;;;;;;11.90;6.73;;;7.40;20.40;;;;;;5010608;28;20830;-68
2023/12/29 02:02:56;;;;;;;11.03;8.33;;;7.40;20.40;;;;;;5011048;28;20459;-69
2023/12/29 02:05:26;;;;;;;11.60;7.57;;;7.30;20.50;;;;;;5011004;28;20480;-68
2023/12/29 02:07:53;;;;;;;11.83;7.20;;;7.30;20.50;;;;;;5011127;28;20452;-68
2023/12/29 02:10:20;;;;;;;15.93;8.27;;;7.30;20.70;;;;;;5011236;28;21009;-68
2023/12/29 02:12:48;;;;;;;14.90;7.97;;;7.40;20.70;;;;;;5011415;28;20845;-68
2023/12/29 02:15:15;;;;;;;10.80;7.37;;;7.40;20.80;;;;;;5010915;28;20970;-68
2023/12/29 02:17:49;;;;;;;11.90;7.47;;;7.40;20.70;;;;;;5010418;28;20861;-68
2023/12/29 02:20:17;;;;;;;11.33;7.57;;;7.40;20.80;;;;;;5010753;28;20464;-68
2023/12/29 02:22:44;;;;;;;13.50;7.83;;;7.50;20.90;;;;;;5010780;28;20467;-68
2023/12/29 02:25:12;;;;;;;11.27;7.67;;;7.50;20.80;;;;;;5010834;28;20483;-69
2023/12/29 02:27:48;;;;;;;10.70;6.70;;;7.50;20.80;;;;;;5010551;28;20456;-68
2023/12/29 02:30:23;;;;;;;11.03;7.77;;;7.50;20.80;;;;;;5010698;28;20436;-68
2023/12/29 02:32:51;;;;;;;10.10;7.43;;;7.50;20.80;;;;;;5010325;28;20455;-68
2023/12/29 02:35:29;;;;;;;10.77;7.17;;;7.50;20.70;;;;;;5010751;28;21029;-68
2023/12/29 02:37:57;;;;;;;9.83;6.80;;;7.60;20.60;;;;;;5011079;28;20444;-69
2023/12/29 02:40:26;;;;;;;10.53;6.73;;;7.50;20.60;;;;;;5010251;28;20482;-68
2023/12/29 02:42:52;;;;;;;11.20;7.23;;;7.60;20.60;;;;;;5010505;28;20451;-68
2023/12/29 02:45:19;;;;;;;11.93;8.20;;;7.60;20.60;;;;;;5010569;28;20488;-68
2023/12/29 02:47:47;;;;;;;10.17;6.30;;;7.60;20.60;;;;;;5010780;28;20921;-68
2023/12/29 02:50:13;;;;;;;10.73;7.10;;;7.60;20.60;;;;;;5009733;28;20570;-68
2023/12/29 02:52:40;;;;;;;9.63;6.40;;;7.60;20.50;;;;;;5010059;28;20460;-69
2023/12/29 02:55:08;;;;;;;9.63;6.60;;;7.60;20.50;;;;;;5010241;28;21018;-68
2023/12/29 02:57:36;;;;;;;10.30;6.53;;;7.60;20.50;;;;;;5010157;28;20539;-69
2023/12/29 03:00:03;;;;;;;10.50;7.40;;;7.60;20.50;;;;;;5009863;28;20487;-68
2023/12/29 03:02:30;;;;;;;9.80;6.70;;;7.60;20.30;;;;;;5009219;28;20507;-68
2023/12/29 03:04:57;;;;;;;9.30;6.80;;;7.60;20.10;;;;;;5010326;28;20476;-68
2023/12/29 03:07:24;;;;;;;11.63;6.90;;;7.60;20.20;;;;;;5009856;28;20514;-68
2023/12/29 03:09:51;;;;;;;10.43;6.87;;;7.60;20.10;;;;;;5009345;28;20543;-68
2023/12/29 03:12:17;;;;;;;10.03;6.67;;;7.50;20.10;;;;;;5009916;28;20459;-68
2023/12/29 03:14:47;;;;;;;11.17;6.80;;;7.50;19.90;;;;;;5010141;28;21053;-69
2023/12/29 03:17:13;;;;;;;9.33;6.73;;;7.60;19.90;;;;;;5009437;28;20458;-68
2023/12/29 03:19:40;;;;;;;10.37;6.40;;;7.60;19.80;;;;;;5009297;28;20487;-68
2023/12/29 03:22:07;;;;;;;9.40;6.90;;;7.60;19.80;;;;;;5010011;28;20467;-68
2023/12/29 03:24:34;;;;;;;10.43;7.20;;;7.60;19.50;;;;;;5009985;28;20479;-68
2023/12/29 03:27:01;;;;;;;10.97;7.07;;;7.60;19.40;;;;;;5009174;28;20463;-68
2023/12/29 03:29:28;;;;;;;11.17;7.00;;;7.60;19.10;;;;;;5009021;28;20470;-68
2023/12/29 03:31:56;;;;;;;10.70;6.97;;;7.60;19.00;;;;;;5008378;28;20478;-68
2023/12/29 03:34:22;;;;;;;12.07;7.90;;;7.60;19.00;;;;;;5010065;28;20468;-68
2023/12/29 03:36:49;;;;;;;11.07;6.47;;;7.50;18.90;;;;;;5009508;28;20466;-69
2023/12/29 03:39:16;;;;;;;8.80;5.93;;;7.50;18.90;;;;;;5009227;28;20486;-68
2023/12/29 03:41:43;;;;;;;9.37;6.30;;;7.50;19.00;;;;;;5009370;28;20460;-68
2023/12/29 03:44:09;;;;;;;10.30;7.23;;;7.40;19.10;;;;;;5009850;28;20533;-69
2023/12/29 03:46:37;;;;;;;10.40;6.30;;;7.30;19.20;;;;;;5009914;28;20456;-68
2023/12/29 03:49:05;;;;;;;9.70;6.17;;;7.30;19.40;;;;;;5009318;28;20792;-68
2023/12/29 03:51:32;;;;;;;10.23;6.83;;;7.20;19.50;;;;;;5009650;28;20462;-68
2023/12/29 03:53:59;;;;;;;12.33;6.07;;;7.20;19.40;;;;;;5009634;28;20462;-68
2023/12/29 03:56:26;;;;;;;9.70;6.57;;;7.20;19.40;;;;;;5012835;28;20451;-68
2023/12/29 03:58:52;;;;;;;10.10;6.50;;;7.10;19.50;;;;;;5013556;28;20444;-68
2023/12/29 04:01:19;;;;;;;10.33;6.80;;;7.10;19.50;;;;;;5012947;28;21013;-68
2023/12/29 04:03:46;;;;;;;10.57;6.43;;;7.10;19.60;;;;;;5012933;28;20464;-68
2023/12/29 04:06:14;;;;;;;10.60;6.47;;;7.10;19.60;;;;;;5012834;28;20897;-68
2023/12/29 04:08:41;;;;;;;9.50;6.90;;;7.00;19.50;;;;;;5011861;28;20477;-68
2023/12/29 04:11:08;;;;;;;11.23;7.20;;;7.00;19.50;;;;;;5013571;28;20814;-68
2023/12/29 04:13:35;;;;;;;9.10;6.70;;;7.00;19.50;;;;;;5012769;28;20455;-68
2023/12/29 04:16:01;;;;;;;12.43;7.23;;;7.00;19.60;;;;;;5013164;28;20483;-68
2023/12/29 04:18:30;;;;;;;13.10;6.40;;;6.90;19.70;;;;;;5013407;28;20455;-68
2023/12/29 04:20:56;;;;;;;12.10;6.90;;;7.00;19.70;;;;;;5013143;28;20575;-68
2023/12/29 04:23:25;;;;;;;11.20;8.07;;;7.00;19.60;;;;;;5012574;28;20452;-68
2023/12/29 04:25:52;;;;;;;13.93;6.50;;;7.00;19.70;;;;;;5013284;28;20489;-68
2023/12/29 04:28:19;;;;;;;11.50;6.27;;;6.90;19.60;;;;;;5013355;28;20455;-68
2023/12/29 04:30:45;;;;;;;9.80;6.83;;;7.00;19.60;;;;;;5012411;28;20467;-69
2023/12/29 04:33:12;;;;;;;10.40;6.70;;;7.00;19.60;;;;;;5012469;28;20934;-68
2023/12/29 04:35:39;;;;;;;10.57;6.70;;;6.90;19.60;;;;;;5012614;28;20479;-67
2023/12/29 04:38:06;;;;;;;10.40;6.97;;;7.00;19.50;;;;;;5013095;28;20451;-68
2023/12/29 04:40:34;;;;;;;10.93;6.53;;;7.00;19.30;;;;;;5012440;28;20454;-68
2023/12/29 04:43:01;;;;;;;15.20;7.53;;;7.00;19.30;;;;;;5012754;28;20456;-68
2023/12/29 04:45:28;;;;;;;10.43;6.13;;;7.00;19.20;;;;;;5012651;28;21147;-68
2023/12/29 04:47:55;;;;;;;11.37;6.70;;;7.00;19.20;;;;;;5013070;28;20869;-68
2023/12/29 04:50:22;;;;;;;10.73;5.70;;;7.00;19.10;;;;;;5012028;28;20448;-68
2023/12/29 04:52:49;;;;;;;10.20;6.67;;;7.00;19.00;;;;;;5012567;28;20937;-68
2023/12/29 04:55:15;;;;;;;10.43;6.63;;;7.00;19.20;;;;;;5012238;28;20476;-68
2023/12/29 04:57:44;;;;;;;10.10;6.67;;;7.00;19.40;;;;;;5012746;28;20462;-68
2023/12/29 05:00:11;;;;;;;8.20;5.23;;;7.10;19.40;;;;;;5011788;28;20562;-68
2023/12/29 05:02:39;;;;;;;9.07;6.23;;;7.00;19.40;;;;;;5011915;28;20483;-68
2023/12/29 05:05:07;;;;;;;10.53;5.97;;;7.10;19.40;;;;;;5012594;28;20482;-69
2023/12/29 05:07:33;;;;;;;9.40;6.43;;;7.10;19.50;;;;;;5011900;28;20462;-68
2023/12/29 05:10:00;;;;;;;10.20;7.07;;;7.10;19.40;;;;;;5011850;28;20455;-68
2023/12/29 05:12:27;;;;;;;10.70;7.37;;;7.10;19.60;;;;;;5012238;28;20482;-68
2023/12/29 05:14:55;;;;;;;9.47;6.80;;;7.20;19.30;;;;;;5012075;28;20501;-68
2023/12/29 05:17:22;;;;;;;10.40;6.47;;;7.20;19.30;;;;;;5011947;28;20456;-68
2023/12/29 05:19:48;;;;;;;10.33;7.23;;;7.20;19.30;;;;;;5011640;28;20484;-69
2023/12/29 05:22:17;;;;;;;9.63;7.27;;;7.10;19.40;;;;;;5012214;28;20964;-68
2023/12/29 05:24:45;;;;;;;10.10;6.90;;;7.20;19.40;;;;;;5011494;28;20483;-69
2023/12/29 05:27:11;;;;;;;12.53;6.93;;;7.20;19.40;;;;;;5060865;23;20522;-69
2023/12/29 05:29:38;;;;;;;10.80;7.00;;;7.20;19.50;;;;;;5032043;28;20462;-68
2023/12/29 05:32:08;;;;;;;13.37;6.63;;;7.10;19.50;;;;;;5032668;28;20554;-68
2023/12/29 05:34:35;;;;;;;10.27;6.40;;;7.10;19.50;;;;;;5033823;28;20493;-68
2023/12/29 05:37:01;;;;;;;10.07;6.90;;;7.10;19.60;;;;;;5034748;28;20466;-68
2023/12/29 05:39:29;;;;;;;10.13;6.57;;;7.10;19.70;;;;;;5031606;28;20497;-68
2023/12/29 05:41:55;;;;;;;9.40;6.57;;;7.10;19.60;;;;;;5030990;28;20474;-68
2023/12/29 05:44:22;;;;;;;10.03;7.20;;;7.10;19.60;;;;;;5029852;28;21034;-68
2023/12/29 05:46:49;;;;;;;10.30;6.57;;;7.10;19.70;;;;;;5024687;28;20474;-68
2023/12/29 05:49:17;;;;;;;9.40;6.90;;;7.10;19.80;;;;;;5033229;28;20463;-68
2023/12/29 05:51:45;;;;;;;8.87;5.93;;;7.10;19.80;;;;;;5032185;28;20933;-67
2023/12/29 05:54:11;;;;;;;10.10;6.70;;;7.10;19.80;;;;;;5034795;28;20841;-70
2023/12/29 05:56:38;;;;;;;8.60;5.70;;;7.10;19.90;;;;;;5028878;28;20467;-69
2023/12/29 05:59:05;;;;;;;9.87;6.40;;;7.10;19.70;;;;;;5032058;28;20451;-70
2023/12/29 06:01:32;;;;;;;8.63;6.30;;;7.10;19.70;;;;;;5029818;28;20569;-67
2023/12/29 06:03:58;;;;;;;9.00;6.50;;;7.10;19.70;;;;;;5035059;28;20478;-67
2023/12/29 06:06:27;;;;;;;10.70;6.70;;;7.10;19.80;;;;;;5030709;28;20463;-70
2023/12/29 06:08:53;;;;;;;10.00;5.93;;;7.20;19.70;;;;;;5032776;28;20474;-67
2023/12/29 06:11:20;;;;;;;9.17;5.73;;;7.20;19.80;;;;;;5025977;28;20466;-69
2023/12/29 06:13:47;;;;;;;9.23;5.97;;;7.20;19.70;;;;;;5032671;28;20479;-69
2023/12/29 06:16:18;;;;;;;10.47;6.20;;;7.20;19.60;;;;;;5030449;28;20459;-68
2023/12/29 06:18:45;;;;;;;9.50;6.33;;;7.30;19.50;;;;;;5032159;28;20459;-68
2023/12/29 06:21:12;;;;;;;9.90;5.57;;;7.30;20.00;;;;;;5026071;28;20866;-70
2023/12/29 06:23:40;;;;;;;9.97;5.50;;;7.30;19.60;;;;;;5028106;28;20487;-68
2023/12/29 06:26:14;;;;;;;7.60;5.00;;;7.30;19.80;;;;;;5026997;28;20466;-70
2023/12/29 06:28:41;;;;;;;10.27;5.80;;;7.30;19.90;;;;;;5026804;28;20456;-68
2023/12/29 06:31:08;;;;;;;9.93;5.10;;;7.30;20.00;;;;;;5028066;28;20481;-68
2023/12/29 06:33:35;;;;;;;7.60;5.00;;;7.30;20.00;;;;;;5027511;28;20490;-68
2023/12/29 06:36:02;;;;;;;7.90;5.30;;;7.30;20.10;;;;;;5028301;28;20831;-69
2023/12/29 06:38:29;;;;;;;9.30;5.30;;;7.20;20.20;;;;;;5028888;28;20838;-68
2023/12/29 06:40:57;;;;;;;11.63;6.50;;;7.20;20.30;;;;;;5027497;28;21014;-68
2023/12/29 06:43:23;;;;;;;10.47;5.73;;;7.20;20.40;;;;;;5027223;28;20486;-69
2023/12/29 06:45:50;;;;;;;9.17;5.93;;;7.20;20.50;;;;;;5027739;28;20458;-69
2023/12/29 06:48:17;;;;;;;8.30;5.30;;;7.20;20.40;;;;;;5028068;28;20466;-69
2023/12/29 06:50:44;;;;;;;10.17;5.57;;;7.20;20.80;;;;;;5024050;28;20463;-69
2023/12/29 06:53:10;;;;;;;9.70;6.90;;;7.20;20.90;;;;;;5026009;28;20483;-69
2023/12/29 06:55:37;;;;;;;8.80;5.77;;;7.30;21.10;;;;;;5026349;28;20809;-69
2023/12/29 06:58:05;;;;;;;11.90;5.40;;;7.30;21.00;;;;;;5026711;28;20458;-69
2023/12/29 07:00:33;;;;;;;8.90;4.80;;;7.30;21.20;;;;;;5026447;28;20479;-69
2023/12/29 07:03:00;;;;;;;8.17;4.50;;;7.30;21.40;;;;;;5027987;28;20727;-69
2023/12/29 07:05:27;;;;;;;8.83;5.70;;;7.30;21.50;;;;;;5026194;28;20466;-67
2023/12/29 07:07:54;;;;;;;10.50;6.17;;;7.30;21.70;;;;;;5026530;28;20454;-68
2023/12/29 07:10:21;;;;;;;10.37;5.03;;;7.40;21.80;;;;;;5026487;28;20459;-69
2023/12/29 07:12:47;;;;;;;7.40;4.57;;;7.40;21.70;;;;;;5028052;28;20454;-69
2023/12/29 07:15:16;;;;;;;7.33;4.73;;;7.50;21.90;;;;;;5027151;28;20459;-70
2023/12/29 07:17:42;;;;;;;8.90;5.37;;;7.50;22.20;;;;;;5037499;28;20477;-69
2023/12/29 07:20:09;;;;;;;8.43;5.37;;;7.50;22.10;;;;;;5028727;28;20463;-70
2023/12/29 07:22:36;;;;;;;7.70;5.10;;;7.50;22.10;;;;;;5029870;28;20458;-69
2023/12/29 07:25:03;;;;;;;8.47;5.33;;;7.50;22.30;;;;;;5031751;28;20492;-69
2023/12/29 07:27:30;;;;;;;8.40;5.03;;;7.60;22.10;;;;;;5030379;28;20485;-70
2023/12/29 07:29:57;;;;;;;7.60;4.70;;;7.60;22.10;;;;;;5031639;28;20817;-70
2023/12/29 07:32:26;;;;;;;9.53;4.40;;;7.60;22.10;;;;;;5030470;28;20502;-69
2023/12/29 07:34:52;;;;;;;11.10;4.73;;;7.70;22.20;;;;;;5025808;28;20501;-69
2023/12/29 07:37:19;;;;;;;9.10;4.80;;;7.70;22.00;;;;;;5031476;28;20458;-68
2023/12/29 07:39:47;;;;;;;8.87;5.10;;;7.70;21.90;;;;;;5034437;28;20451;-70
2023/12/29 07:42:16;;;;;;;7.53;4.20;;;7.80;21.60;;;;;;5025469;28;21081;-71
2023/12/29 07:44:43;;;;;;;7.93;4.50;;;7.80;21.60;;;;;;5025731;28;20479;-70
2023/12/29 07:47:11;;;;;;;7.30;4.50;;;7.80;21.80;;;;;;5028431;28;20813;-69
2023/12/29 07:49:39;;;;;;;7.20;4.30;;;7.80;21.80;;;;;;5031769;28;20568;-69
2023/12/29 07:52:06;;;;;;;8.13;4.77;;;7.80;21.90;;;;;;5026689;28;20454;-69
2023/12/29 07:54:33;;;;;;;7.53;4.27;;;7.80;21.90;;;;;;5026445;28;21496;-69
2023/12/29 07:56:59;;;;;;;9.17;5.33;;;7.90;21.90;;;;;;5028577;28;20469;-69
2023/12/29 07:59:26;;;;;;;8.03;4.80;;;7.90;22.00;;;;;;5026635;28;20459;-69
2023/12/29 08:01:53;;;;;;;7.40;4.63;;;7.90;22.20;;;;;;5031302;28;20475;-69
2023/12/29 08:04:20;;;;;;;8.43;4.80;;;8.00;22.00;;;;;;5029821;28;20498;-68
2023/12/29 08:06:48;;;;;;;7.77;5.07;;;8.10;22.10;;;;;;5025383;28;20462;-70
2023/12/29 08:09:14;;;;;;;6.90;4.30;;;8.50;21.50;;;;;;5027089;28;20974;-71
2023/12/29 08:11:42;;;;;;;6.83;4.07;;;8.90;20.60;;;;;;5026644;28;20458;-69
2023/12/29 08:14:11;;;;;;;7.27;3.93;;;9.40;19.50;;;;;;5025510;28;20486;-69
2023/12/29 08:16:39;;;;;;;7.40;4.33;;;10.00;18.00;;;;;;5024287;28;20464;-69
2023/12/29 08:19:07;;;;;;;8.10;4.13;;;10.60;16.70;;;;;;5027016;28;20924;-69
2023/12/29 08:21:34;;;;;;;7.70;4.80;;;11.00;14.90;;;;;;5026040;28;20896;-70
2023/12/29 08:24:02;;;;;;;7.03;4.13;;;11.30;14.10;;;;;;5023651;28;20479;-69
2023/12/29 08:26:28;;;;;;;6.00;3.70;;;11.60;13.10;;;;;;5025555;28;20944;-69
2023/12/29 08:28:55;;;;;;;8.30;4.67;;;11.80;12.60;;;;;;5025338;28;20463;-69
2023/12/29 08:31:22;;;;;;;7.90;4.47;;;11.90;11.80;;;;;;5025910;28;20478;-69
2023/12/29 08:33:49;;;;;;;6.43;3.93;;;12.00;11.90;;;;;;5025814;28;20846;-70
2023/12/29 08:36:19;;;;;;;7.17;4.17;;;12.30;11.60;;;;;;5030027;28;20468;-69
2023/12/29 08:38:46;;;;;;;6.57;3.60;;;12.20;10.70;;;;;;5023868;28;20463;-69
2023/12/29 08:41:16;;;;;;;6.30;3.73;;;12.00;11.00;;;;;;5025164;28;20485;-69
2023/12/29 08:43:42;;;;;;;7.00;4.27;;;11.90;12.00;;;;;;5030392;28;20490;-70
2023/12/29 08:46:09;;;;;;;6.53;4.20;;;11.90;11.80;;;;;;5030677;28;20474;-69
2023/12/29 08:48:36;;;;;;;6.97;3.90;;;11.90;12.00;;;;;;5027846;28;20859;-69
2023/12/29 08:51:03;;;;;;;6.30;3.63;;;11.80;11.70;;;;;;5029666;28;20455;-69
2023/12/29 08:53:31;;;;;;;7.67;3.77;;;11.60;12.10;;;;;;5029518;28;20483;-70
2023/12/29 08:55:57;;;;;;;6.90;3.80;;;11.50;12.40;;;;;;5029384;28;20463;-69
2023/12/29 08:58:25;;;;;;;8.20;3.73;;;11.30;12.80;;;;;;5028645;28;20467;-69
2023/12/29 09:00:52;;;;;;;6.67;4.43;;;11.30;13.00;;;;;;5026417;28;20475;-69
2023/12/29 09:03:19;;;;;;;8.30;4.70;;;11.20;13.20;;;;;;5028898;28;20479;-69
2023/12/29 09:05:46;;;;;;;6.70;3.83;;;11.10;13.50;;;;;;5027276;28;20530;-70
2023/12/29 09:08:12;;;;;;;7.40;4.40;;;10.90;13.80;;;;;;5028176;28;20463;-69
2023/12/29 09:10:39;;;;;;;7.00;4.10;;;10.80;14.10;;;;;;5028632;28;20467;-69
2023/12/29 09:13:06;;;;;;;8.93;4.23;;;10.70;14.60;;;;;;5029230;28;20486;-69
2023/12/29 09:15:35;;;;;;;6.50;4.13;;;10.90;15.30;;;;;;5023894;28;20481;-69
2023/12/29 09:18:02;;;;;;;7.87;4.40;;;11.20;15.40;;;;;;5029667;28;20458;-69
2023/12/29 09:20:28;;;;;;;7.70;4.10;;;11.50;14.50;;;;;;5029756;28;20463;-69
2023/12/29 09:22:55;;;;;;;6.70;4.23;;;11.70;13.60;;;;;;5027486;28;20494;-69
2023/12/29 09:25:22;;;;;;;8.17;4.73;;;11.80;13.40;;;;;;5029448;28;20832;-69
2023/12/29 09:27:49;;;;;;;7.80;4.30;;;11.90;13.00;;;;;;5030156;28;20458;-70
2023/12/29 09:30:16;;;;;;;6.80;4.40;;;12.00;12.40;;;;;;5033800;28;20477;-69
2023/12/29 09:32:44;;;;;;;7.00;4.17;;;12.10;12.80;;;;;;5029558;28;20476;-69
2023/12/29 09:35:11;;;;;;;6.97;4.23;;;12.20;12.00;;;;;;5026925;28;20654;-69
2023/12/29 09:37:37;;;;;;;8.13;4.97;;;12.40;12.20;;;;;;5029775;28;20930;-69
2023/12/29 09:40:05;;;;;;;7.57;4.27;;;12.60;12.00;;;;;;5025457;28;20463;-70
2023/12/29 09:42:32;;;;;;;7.70;3.80;;;12.70;11.90;;;;;;5024682;28;20831;-70
2023/12/29 09:45:03;;;;;;;7.47;4.33;;;12.80;11.70;;;;;;5025720;28;20497;-67
2023/12/29 09:47:32;;;;;;;7.20;4.20;;;12.90;11.20;;;;;;5022486;28;20950;-69
2023/12/29 09:50:00;;;;;;;7.43;4.57;;;12.80;11.20;;;;;;5025598;28;20852;-70
2023/12/29 09:52:28;;;;;;;7.50;4.27;;;12.80;11.20;;;;;;5040020;23;20447;-70
2023/12/29 09:54:55;;;;;;;5.67;3.77;;;12.70;11.30;;;;;;5057392;22;20525;-71
2023/12/29 09:57:24;;;;;;;7.90;5.23;;;12.70;11.30;;;;;;5047749;28;20458;-70
2023/12/29 09:59:52;;;;;;;7.20;4.50;;;12.70;11.40;;;;;;5048513;28;20466;-69
2023/12/29 10:02:20;;;;;;;6.90;4.17;;;12.60;11.50;;;;;;5048354;28;20481;-67
2023/12/29 10:04:47;;;;;;;6.20;4.10;;;12.70;11.70;;;;;;5051037;28;20476;-69
2023/12/29 10:07:21;;;;;;;6.40;4.60;;;12.60;11.60;;;;;;5049745;28;20458;-70
2023/12/29 10:09:51;;;;;;;6.57;4.17;;;12.60;11.60;;;;;;5046249;28;20465;-70
2023/12/29 10:12:19;;;;;;;7.60;4.20;;;12.50;11.90;;;;;;5045423;28;20509;-70
2023/12/29 10:14:49;;;;;;;6.27;3.97;;;12.30;12.10;;;;;;5047989;28;20478;-69
2023/12/29 10:17:25;;;;;;;9.30;4.30;;;12.20;12.40;;;;;;5045382;28;20519;-70
2023/12/29 10:20:03;;;;;;;6.93;4.27;;;12.10;12.80;;;;;;5044383;28;20999;-70
2023/12/29 10:22:42;;;;;;;9.10;4.90;;;12.00;13.00;;;;;;5043809;28;20852;-68
2023/12/29 10:25:09;;;;;;;8.03;4.33;;;12.00;13.30;;;;;;5046596;28;20992;-69
2023/12/29 10:27:36;;;;;;;7.60;4.60;;;11.90;13.60;;;;;;5050473;28;20453;-71
2023/12/29 10:30:03;;;;;;;6.43;4.07;;;11.90;14.00;;;;;;5044586;28;20944;-69
2023/12/29 10:32:30;;;;;;;9.03;4.13;;;11.90;14.10;;;;;;5046756;28;20474;-69
2023/12/29 10:35:10;;;;;;;6.70;4.60;;;11.90;14.20;;;;;;5047434;28;20999;-69
2023/12/29 10:37:38;;;;;;;6.60;4.03;;;12.00;14.20;;;;;;5048309;28;20501;-70
2023/12/29 10:40:07;;;;;;;7.40;4.00;;;12.00;14.10;;;;;;5050447;28;20488;-70
2023/12/29 10:42:33;;;;;;;6.43;4.30;;;12.00;14.30;;;;;;5048876;28;20470;-69
2023/12/29 10:45:07;;;;;;;6.90;3.50;;;12.00;14.80;;;;;;5049618;28;20482;-69
2023/12/29 10:47:35;;;;;;;6.17;3.97;;;12.00;14.50;;;;;;5045447;28;20820;-70
2023/12/29 10:50:04;;;;;;;7.70;4.30;;;12.00;14.60;;;;;;5046640;28;20550;-71
2023/12/29 10:52:32;;;;;;;5.37;3.13;;;12.00;14.80;;;;;;5045954;28;20512;-70
2023/12/29 10:55:08;;;;;;;6.23;3.63;;;12.00;14.90;;;;;;5047704;28;20564;-69
2023/12/29 10:57:35;;;;;;;5.90;3.17;;;12.00;15.30;;;;;;5047719;28;20454;-69
2023/12/29 11:00:03;;;;;;;6.00;3.40;;;12.20;15.20;;;;;;5045540;28;20816;-70
2023/12/29 11:02:30;;;;;;;5.33;2.97;;;12.40;14.80;;;;;;5047289;28;20470;-69
2023/12/29 11:05:04;;;;;;;6.10;3.23;;;12.40;14.40;;;;;;5047483;28;20481;-70
2023/12/29 11:07:38;;;;;;;8.00;3.43;;;12.50;14.50;;;;;;5047859;28;20481;-70
2023/12/29 11:10:07;;;;;;;7.40;3.30;;;12.70;14.40;;;;;;5046540;28;20496;-69
2023/12/29 11:12:35;;;;;;;6.43;3.23;;;12.90;13.90;;;;;;5048050;28;20458;-69
2023/12/29 11:15:04;;;;;;;6.50;2.50;;;13.00;13.50;;;;;;5048570;28;20478;-70
2023/12/29 11:17:32;;;;;;;5.10;2.90;;;13.00;13.20;;;;;;5046351;28;20500;-70
2023/12/29 11:20:00;;;;;;;8.67;2.93;;;13.10;13.10;;;;;;5043920;28;20462;-70
2023/12/29 11:22:29;;;;;;;5.10;2.93;;;13.10;12.80;;;;;;5044720;28;20478;-70
2023/12/29 11:24:58;;;;;;;7.60;3.43;;;13.00;12.70;;;;;;5048698;28;20585;-71
2023/12/29 11:27:29;;;;;;;7.10;3.30;;;13.00;12.60;;;;;;5048686;28;20462;-69
2023/12/29 11:29:56;;;;;;;5.20;2.77;;;12.90;12.80;;;;;;5045331;28;20450;-70
2023/12/29 11:32:30;;;;;;;6.13;3.23;;;12.80;12.70;;;;;;5046341;28;20466;-71
2023/12/29 11:35:03;;;;;;;5.43;3.27;;;12.80;13.00;;;;;;5047365;28;20489;-69
2023/12/29 11:37:48;;;;;;;6.73;3.57;;;12.70;12.90;;;;;;5042203;28;21350;-70
2023/12/29 11:40:20;;;;;;;6.90;3.50;;;12.70;13.20;;;;;;5047349;28;20462;-70
2023/12/29 11:42:52;;;;;;;7.67;4.10;;;12.60;13.20;;;;;;5048293;28;20484;-69
2023/12/29 11:45:26;;;;;;;6.77;3.20;;;12.50;13.30;;;;;;5046729;28;20482;-70
2023/12/29 11:47:55;;;;;;;6.37;3.57;;;12.40;13.50;;;;;;5049254;28;20934;-69
2023/12/29 11:50:30;;;;;;;5.80;3.80;;;12.40;13.80;;;;;;5044620;28;20466;-69
2023/12/29 11:52:57;;;;;;;7.80;3.47;;;12.40;14.50;;;;;;5049150;28;20825;-70
2023/12/29 11:55:30;;;;;;;7.00;3.60;;;12.30;13.90;;;;;;5043968;28;20555;-70
2023/12/29 11:57:59;;;;;;;5.27;3.20;;;12.20;14.10;;;;;;5044721;28;22356;-70
2023/12/29 12:00:43;;;;;;;7.43;3.67;;;12.10;14.20;;;;;;5044450;28;20454;-70
2023/12/29 12:03:19;;;;;;;5.43;3.03;;;12.00;14.60;;;;;;5049055;28;20992;-70
2023/12/29 12:05:47;;;;;;;6.10;3.43;;;12.00;14.90;;;;;;5048250;28;20564;-70
2023/12/29 12:08:28;;;;;;;5.97;3.37;;;11.90;14.90;;;;;;5046184;28;20496;-70
2023/12/29 12:10:54;;;;;;;5.77;3.30;;;11.90;15.10;;;;;;5046646;28;20457;-70
2023/12/29 12:13:46;;;;;;;5.43;3.47;;;11.90;15.10;;;;;;5038640;28;20791;-70
2023/12/29 12:16:53;;;;;;;6.10;3.30;;;11.80;15.30;;;;;;5048088;28;20454;-70
2023/12/29 12:19:21;;;;;;;5.23;2.97;;;11.80;15.60;;;;;;5047652;28;20492;-70
2023/12/29 12:21:49;;;;;;;6.10;3.20;;;11.70;15.60;;;;;;5045447;28;20847;-70
2023/12/29 12:24:19;;;;;;;6.13;3.60;;;11.80;15.60;;;;;;5049895;28;21007;-70
2023/12/29 12:26:45;;;;;;;5.37;2.77;;;11.80;15.70;;;;;;5048427;28;20484;-70
2023/12/29 12:29:15;;;;;;;5.50;3.03;;;11.80;15.60;;;;;;5051130;28;20461;-70
2023/12/29 12:31:55;;;;;;;5.97;3.60;;;11.80;15.60;;;;;;5052429;28;20831;-70
2023/12/29 12:34:23;;;;;;;6.30;3.10;;;11.80;15.60;;;;;;5048862;28;20485;-70
2023/12/29 12:36:50;;;;;;;6.27;3.17;;;11.90;15.60;;;;;;5043932;28;21398;-70
2023/12/29 12:39:17;;;;;;;7.67;3.73;;;11.90;15.50;;;;;;5042963;28;20466;-69
2023/12/29 12:41:44;;;;;;;6.00;3.40;;;11.90;15.60;;;;;;5048664;28;20462;-70
2023/12/29 12:44:13;;;;;;;9.40;3.67;;;11.90;15.60;;;;;;5049498;28;20488;-69
2023/12/29 12:46:50;;;;;;;5.30;2.77;;;11.90;15.60;;;;;;5050306;28;20454;-69
2023/12/29 12:49:17;;;;;;;5.70;3.43;;;11.90;15.60;;;;;;5047874;28;20943;-69
2023/12/29 12:51:44;;;;;;;6.60;2.97;;;11.90;15.50;;;;;;5045548;28;20458;-69
2023/12/29 12:54:12;;;;;;;7.07;3.03;;;11.90;15.50;;;;;;5046240;28;20486;-70